createdAt,value
2019-03-20T00:00:59.209Z,7.27
2019-03-20T00:03:47.852Z,6.83
2019-03-20T00:06:36.283Z,6.28
2019-03-20T00:09:24.747Z,6.03
2019-03-20T00:12:13.210Z,6.20
2019-03-20T00:15:01.326Z,5.83
2019-03-20T00:17:49.833Z,6.00
2019-03-20T00:20:38.374Z,6.00
2019-03-20T00:23:27.514Z,5.53
2019-03-20T00:26:16.393Z,4.87
2019-03-20T00:29:05.024Z,5.45
2019-03-20T00:31:53.900Z,5.53
2019-03-20T00:34:43.046Z,5.15
2019-03-20T00:37:31.996Z,5.58
2019-03-20T00:40:20.247Z,5.45
2019-03-20T00:43:08.874Z,6.28
2019-03-20T00:45:57.877Z,5.53
2019-03-20T00:48:46.668Z,5.62
2019-03-20T00:51:35.748Z,4.95
2019-03-20T00:54:23.985Z,11.03
2019-03-20T00:57:12.796Z,11.85
2019-03-20T01:00:01.256Z,10.30
2019-03-20T01:02:50.180Z,8.30
2019-03-20T01:05:39.025Z,6.42
2019-03-20T01:08:28.075Z,6.55
2019-03-20T01:11:16.147Z,5.10
2019-03-20T01:14:04.242Z,5.20
2019-03-20T01:16:53.378Z,5.80
2019-03-20T01:19:41.887Z,5.45
2019-03-20T01:22:30.566Z,5.80
2019-03-20T01:25:19.240Z,5.12
2019-03-20T01:28:07.707Z,4.55
2019-03-20T01:30:55.915Z,4.13
2019-03-20T01:33:44.707Z,5.53
2019-03-20T01:36:33.546Z,5.00
2019-03-20T01:39:22.084Z,5.25
2019-03-20T01:42:10.310Z,5.53
2019-03-20T01:44:59.068Z,5.37
2019-03-20T01:47:47.486Z,4.97
2019-03-20T01:50:35.747Z,5.22
2019-03-20T01:53:24.698Z,5.03
2019-03-20T01:56:13.178Z,4.42
2019-03-20T01:59:02.840Z,4.75
2019-03-20T02:01:52.125Z,5.35
2019-03-20T02:04:40.366Z,4.45
2019-03-20T02:07:29.286Z,4.87
2019-03-20T02:10:17.786Z,4.80
2019-03-20T02:13:06.573Z,5.58
2019-03-20T02:15:54.884Z,5.53
2019-03-20T02:18:43.246Z,4.62
2019-03-20T02:21:31.270Z,5.53
2019-03-20T02:24:20.365Z,3.98
2019-03-20T02:27:10.030Z,4.45
2019-03-20T02:29:59.022Z,4.75
2019-03-20T02:32:47.147Z,4.72
2019-03-20T02:35:50.275Z,4.78
2019-03-20T02:38:25.793Z,4.70
2019-03-20T02:41:14.470Z,4.50
2019-03-20T02:44:02.360Z,4.50
2019-03-20T02:46:51.012Z,4.78
2019-03-20T02:49:39.881Z,4.65
2019-03-20T02:52:28.755Z,4.95
2019-03-20T02:55:17.930Z,4.80
2019-03-20T02:58:06.522Z,5.00
2019-03-20T03:00:55.413Z,4.20
2019-03-20T03:03:44.074Z,5.25
2019-03-20T03:06:33.033Z,4.40
2019-03-20T03:09:21.653Z,4.30
2019-03-20T03:12:13.305Z,4.60
2019-03-20T03:15:02.098Z,4.33
2019-03-20T03:17:50.651Z,5.00
2019-03-20T03:20:38.931Z,5.35
2019-03-20T03:23:27.343Z,4.60
2019-03-20T03:26:16.127Z,4.60
2019-03-20T03:29:04.760Z,4.53
2019-03-20T03:31:53.164Z,5.72
2019-03-20T03:34:41.535Z,5.00
2019-03-20T03:37:30.128Z,5.10
2019-03-20T03:40:18.847Z,5.50
2019-03-20T03:43:06.903Z,5.03
2019-03-20T03:45:55.434Z,4.70
2019-03-20T03:48:44.172Z,4.97
2019-03-20T03:51:33.417Z,4.83
2019-03-20T03:54:22.046Z,5.22
2019-03-20T03:57:10.609Z,4.80
2019-03-20T03:59:59.408Z,4.50
2019-03-20T04:02:48.224Z,5.50
2019-03-20T04:05:37.422Z,4.00
2019-03-20T04:08:26.382Z,5.17
2019-03-20T04:11:14.432Z,4.80
2019-03-20T04:14:03.560Z,5.50
2019-03-20T04:16:51.946Z,4.97
2019-03-20T04:19:40.858Z,5.20
2019-03-20T04:22:29.475Z,5.03
2019-03-20T04:25:18.958Z,5.80
2019-03-20T04:28:06.784Z,5.10
2019-03-20T04:30:54.926Z,5.40
2019-03-20T04:33:43.719Z,5.65
2019-03-20T04:36:31.773Z,4.78
2019-03-20T04:39:20.835Z,5.20
2019-03-20T04:42:09.560Z,5.30
2019-03-20T04:44:58.168Z,4.83
2019-03-20T04:47:46.487Z,5.47
2019-03-20T04:50:35.340Z,4.67
2019-03-20T04:53:23.409Z,5.53
2019-03-20T04:56:12.697Z,5.37
2019-03-20T04:59:01.114Z,4.95
2019-03-20T05:01:49.892Z,5.30
2019-03-20T05:04:38.478Z,5.33
2019-03-20T05:07:27.210Z,5.75
2019-03-20T05:10:15.433Z,5.10
2019-03-20T05:13:04.351Z,5.90
2019-03-20T05:15:53.026Z,5.60
2019-03-20T05:18:41.888Z,6.75
2019-03-20T05:21:30.724Z,5.83
2019-03-20T05:24:19.247Z,5.50
2019-03-20T05:27:08.210Z,5.83
2019-03-20T05:29:57.177Z,5.25
2019-03-20T05:32:45.983Z,6.40
2019-03-20T05:35:34.565Z,5.20
2019-03-20T05:38:23.162Z,5.25
2019-03-20T05:41:12.096Z,5.30
2019-03-20T05:44:01.139Z,6.47
2019-03-20T05:46:49.668Z,5.40
2019-03-20T05:49:38.425Z,5.83
2019-03-20T05:52:26.876Z,6.78
2019-03-20T05:55:15.342Z,5.85
2019-03-20T05:58:04.173Z,5.90
2019-03-20T06:00:52.697Z,6.57
2019-03-20T06:03:41.339Z,6.17
2019-03-20T06:06:29.765Z,6.40
2019-03-20T06:09:18.395Z,6.12
2019-03-20T06:12:07.290Z,6.85
2019-03-20T06:14:55.925Z,6.60
2019-03-20T06:17:46.730Z,6.97
2019-03-20T06:20:34.390Z,6.90
2019-03-20T06:23:22.502Z,7.25
2019-03-20T06:26:11.564Z,6.33
2019-03-20T06:29:00.146Z,7.10
2019-03-20T06:31:48.380Z,6.90
2019-03-20T06:34:37.239Z,7.15
2019-03-20T06:37:32.548Z,7.03
2019-03-20T06:40:16.672Z,7.25
2019-03-20T06:43:05.739Z,7.22
2019-03-20T06:45:54.096Z,8.00
2019-03-20T06:48:44.255Z,7.72
2019-03-20T06:51:32.548Z,7.22
2019-03-20T06:54:20.850Z,7.35
2019-03-20T06:57:09.524Z,9.05
2019-03-20T07:00:48.076Z,7.50
2019-03-20T07:03:52.609Z,8.43
2019-03-20T07:06:49.169Z,7.92
2019-03-20T07:09:52.150Z,7.58
2019-03-20T07:12:40.536Z,9.25
2019-03-20T07:15:29.021Z,8.53
2019-03-20T07:18:18.224Z,8.85
2019-03-20T07:21:06.813Z,9.98
2019-03-20T07:23:55.639Z,9.78
2019-03-20T07:26:44.478Z,10.10
2019-03-20T07:29:33.250Z,10.58
2019-03-20T07:32:21.561Z,9.00
2019-03-20T07:35:10.109Z,8.33
2019-03-20T07:37:58.506Z,9.70
2019-03-20T07:40:47.542Z,9.10
2019-03-20T07:43:35.779Z,9.45
2019-03-20T07:46:24.433Z,9.57
2019-03-20T07:49:12.451Z,8.93
2019-03-20T07:52:01.125Z,9.00
2019-03-20T07:54:50.361Z,9.03
2019-03-20T07:57:39.188Z,9.45
2019-03-20T08:00:28.096Z,8.20
2019-03-20T08:03:17.015Z,9.38
2019-03-20T08:06:06.005Z,7.75
2019-03-20T08:08:54.176Z,7.83
2019-03-20T08:11:43.077Z,7.92
2019-03-20T08:14:31.499Z,7.10
2019-03-20T08:17:19.997Z,7.10
2019-03-20T08:20:10.185Z,7.83
2019-03-20T08:22:58.382Z,5.90
2019-03-20T08:25:47.028Z,7.17
2019-03-20T08:28:35.261Z,5.78
2019-03-20T08:31:24.295Z,5.35
2019-03-20T08:34:12.654Z,5.87
2019-03-20T08:37:02.443Z,5.83
2019-03-20T08:39:51.426Z,5.65
2019-03-20T08:42:40.563Z,5.87
2019-03-20T08:45:29.508Z,5.67
2019-03-20T08:48:17.766Z,5.95
2019-03-20T08:51:06.476Z,4.62
2019-03-20T08:53:56.345Z,5.28
2019-03-20T08:56:44.991Z,5.20
2019-03-20T08:59:34.181Z,6.08
2019-03-20T09:02:22.759Z,5.47
2019-03-20T09:05:11.341Z,5.50
2019-03-20T09:08:00.243Z,5.37
2019-03-20T09:10:49.181Z,5.45
2019-03-20T09:13:37.949Z,4.90
2019-03-20T09:16:26.339Z,5.20
2019-03-20T09:19:14.720Z,4.72
2019-03-20T09:22:03.590Z,4.10
2019-03-20T09:24:51.968Z,3.37
2019-03-20T09:27:40.960Z,2.65
2019-03-20T09:30:30.182Z,2.80
2019-03-20T09:33:19.250Z,2.60
2019-03-20T09:36:07.892Z,3.33
2019-03-20T09:38:56.246Z,3.50
2019-03-20T09:41:45.313Z,2.80
2019-03-20T09:44:34.097Z,2.80
2019-03-20T09:47:22.870Z,2.30
2019-03-20T09:50:12.978Z,2.12
2019-03-20T09:53:02.131Z,2.20
2019-03-20T09:55:50.565Z,1.80
2019-03-20T09:58:38.733Z,2.52
2019-03-20T10:01:28.082Z,1.70
2019-03-20T10:04:16.503Z,2.00
2019-03-20T10:07:05.115Z,2.10
2019-03-20T10:09:53.536Z,2.12
2019-03-20T10:12:42.442Z,2.80
2019-03-20T10:15:30.794Z,2.20
2019-03-20T10:18:19.295Z,2.30
2019-03-20T10:21:07.473Z,2.47
2019-03-20T10:23:56.807Z,2.15
2019-03-20T10:26:45.488Z,2.20
2019-03-20T10:29:33.954Z,2.50
2019-03-20T10:32:22.534Z,2.67
2019-03-20T10:35:11.701Z,1.98
2019-03-20T10:38:00.394Z,2.25
2019-03-20T10:40:50.349Z,2.33
2019-03-20T10:43:39.351Z,2.17
2019-03-20T10:46:28.027Z,2.10
2019-03-20T10:49:16.579Z,1.82
2019-03-20T10:52:05.550Z,2.65
2019-03-20T10:54:54.043Z,2.30
2019-03-20T10:57:43.162Z,2.20
2019-03-20T11:00:31.959Z,2.17
2019-03-20T11:03:20.645Z,2.35
2019-03-20T11:06:09.224Z,2.20
2019-03-20T11:08:57.763Z,2.30
2019-03-20T11:11:46.039Z,2.50
2019-03-20T11:14:34.675Z,2.70
2019-03-20T11:17:23.665Z,2.23
2019-03-20T11:20:13.543Z,2.17
2019-03-20T11:23:01.429Z,2.67
2019-03-20T11:25:50.567Z,2.60
2019-03-20T11:28:39.622Z,2.25
2019-03-20T11:31:28.274Z,2.50
2019-03-20T11:34:17.434Z,3.17
2019-03-20T11:37:05.900Z,2.27
2019-03-20T11:39:54.963Z,2.80
2019-03-20T11:42:43.651Z,3.00
2019-03-20T11:45:32.415Z,2.70
2019-03-20T11:48:20.965Z,2.60
2019-03-20T11:51:10.161Z,2.65
2019-03-20T11:54:01.542Z,2.65
2019-03-20T11:56:50.552Z,2.37
2019-03-20T11:59:38.787Z,2.25
2019-03-20T12:02:28.649Z,2.50
2019-03-20T12:05:17.654Z,1.98
2019-03-20T12:08:05.893Z,2.43
2019-03-20T12:10:54.706Z,2.33
2019-03-20T12:13:43.457Z,2.90
2019-03-20T12:16:32.404Z,2.47
2019-03-20T12:19:20.960Z,2.95
2019-03-20T12:22:10.229Z,2.58
2019-03-20T12:24:59.175Z,3.40
2019-03-20T12:27:47.871Z,2.90
2019-03-20T12:30:36.421Z,3.08
2019-03-20T12:33:25.087Z,2.50
2019-03-20T12:36:13.831Z,2.77
2019-03-20T12:39:02.470Z,2.20
2019-03-20T12:41:51.067Z,2.80
2019-03-20T12:44:39.612Z,2.47
2019-03-20T12:47:28.818Z,2.77
2019-03-20T12:50:17.458Z,3.03
2019-03-20T12:53:06.413Z,2.60
2019-03-20T12:55:58.700Z,3.45
2019-03-20T12:58:47.112Z,3.30
2019-03-20T13:01:36.416Z,2.80
2019-03-20T13:04:25.249Z,3.10
2019-03-20T13:07:17.895Z,2.70
2019-03-20T13:10:07.610Z,3.10
2019-03-20T13:12:56.868Z,2.40
2019-03-20T13:15:45.849Z,3.20
2019-03-20T13:18:34.138Z,3.30
2019-03-20T13:21:22.745Z,2.77
2019-03-20T13:24:11.038Z,3.07
2019-03-20T13:26:59.427Z,3.10
2019-03-20T13:29:51.051Z,2.70
2019-03-20T13:32:40.127Z,2.87
2019-03-20T13:35:28.300Z,3.00
2019-03-20T13:38:19.916Z,2.63
2019-03-20T13:41:08.714Z,3.37
2019-03-20T13:43:57.903Z,2.87
2019-03-20T13:46:47.123Z,2.83
2019-03-20T13:49:37.785Z,3.20
2019-03-20T13:52:26.370Z,3.40
2019-03-20T13:55:15.434Z,3.37
2019-03-20T13:58:04.773Z,2.97
2019-03-20T14:00:53.444Z,3.33
2019-03-20T14:03:42.378Z,3.47
2019-03-20T14:06:30.543Z,3.83
2019-03-20T14:09:19.108Z,2.73
2019-03-20T14:12:07.498Z,3.37
2019-03-20T14:14:56.599Z,3.40
2019-03-20T14:17:48.572Z,3.10
2019-03-20T14:20:37.155Z,3.27
2019-03-20T14:23:26.103Z,3.80
2019-03-20T14:26:14.514Z,2.40
2019-03-20T14:29:03.317Z,3.83
2019-03-20T14:31:52.259Z,3.42
2019-03-20T14:34:40.571Z,2.83
2019-03-20T14:37:28.727Z,2.57
2019-03-20T14:40:18.840Z,2.90
2019-03-20T14:43:07.375Z,3.03
2019-03-20T14:45:56.616Z,4.40
2019-03-20T14:48:45.454Z,3.00
2019-03-20T14:51:33.977Z,3.53
2019-03-20T14:54:22.867Z,3.27
2019-03-20T14:57:11.383Z,3.30
2019-03-20T14:59:59.498Z,3.47
2019-03-20T15:02:48.349Z,3.13
2019-03-20T15:05:37.402Z,3.20
2019-03-20T15:08:28.964Z,3.00
2019-03-20T15:11:18.125Z,3.00
2019-03-20T15:14:17.139Z,3.60
2019-03-20T15:17:06.156Z,3.40
2019-03-20T15:19:54.972Z,3.77
2019-03-20T15:22:44.033Z,3.60
2019-03-20T15:25:32.916Z,3.47
2019-03-20T15:28:21.585Z,3.40
2019-03-20T15:31:10.421Z,2.87
2019-03-20T15:33:59.208Z,3.50
2019-03-20T15:36:48.256Z,3.70
2019-03-20T15:39:36.997Z,3.67
2019-03-20T15:42:26.142Z,3.30
2019-03-20T15:45:15.293Z,3.60
2019-03-20T15:48:03.230Z,3.50
2019-03-20T15:50:52.255Z,3.87
2019-03-20T15:53:41.286Z,3.33
2019-03-20T15:56:30.155Z,3.17
2019-03-20T15:59:18.600Z,3.80
2019-03-20T16:02:07.041Z,3.40
2019-03-20T16:04:55.441Z,3.47
2019-03-20T16:07:44.877Z,4.03
2019-03-20T16:10:34.049Z,4.10
2019-03-20T16:13:22.698Z,3.63
2019-03-20T16:16:11.008Z,4.73
2019-03-20T16:18:59.632Z,3.90
2019-03-20T16:21:48.513Z,4.00
2019-03-20T16:24:37.841Z,4.13
2019-03-20T16:27:26.835Z,3.53
2019-03-20T16:30:20.153Z,3.77
2019-03-20T16:33:08.355Z,3.40
2019-03-20T16:35:56.810Z,3.50
2019-03-20T16:38:45.707Z,3.60
2019-03-20T16:41:33.844Z,3.70
2019-03-20T16:44:22.156Z,3.83
2019-03-20T16:47:11.493Z,3.60
2019-03-20T16:50:00.496Z,3.83
2019-03-20T16:52:49.037Z,5.47
2019-03-20T16:55:38.056Z,3.83
2019-03-20T16:58:26.906Z,3.77
2019-03-20T17:01:15.584Z,3.17
2019-03-20T17:04:04.434Z,4.37
2019-03-20T17:06:53.034Z,3.70
2019-03-20T17:09:41.706Z,4.90
2019-03-20T17:12:30.677Z,4.00
2019-03-20T17:15:21.057Z,2.87
2019-03-20T17:18:09.713Z,3.47
2019-03-20T17:20:58.465Z,2.87
2019-03-20T17:23:47.634Z,3.07
2019-03-20T17:26:36.371Z,2.90
2019-03-20T17:29:24.611Z,3.87
2019-03-20T17:32:12.938Z,3.70
2019-03-20T17:35:01.894Z,3.27
2019-03-20T17:37:50.962Z,3.70
2019-03-20T17:40:39.833Z,3.37
2019-03-20T17:43:31.312Z,3.45
2019-03-20T17:46:21.716Z,3.67
2019-03-20T17:49:10.857Z,3.80
2019-03-20T17:51:59.647Z,3.60
2019-03-20T17:54:48.536Z,3.50
2019-03-20T17:57:37.391Z,4.22
2019-03-20T18:00:40.683Z,3.84
2019-03-20T18:03:29.577Z,3.45
2019-03-20T18:06:18.925Z,3.72
2019-03-20T18:09:09.367Z,3.83
2019-03-20T18:11:58.726Z,3.70
2019-03-20T18:14:47.211Z,3.60
2019-03-20T18:17:36.520Z,3.50
2019-03-20T18:20:25.789Z,3.77
2019-03-20T18:23:14.944Z,3.77
2019-03-20T18:26:03.799Z,4.08
2019-03-20T18:28:52.763Z,4.12
2019-03-20T18:31:45.961Z,4.80
2019-03-20T18:34:32.231Z,3.70
2019-03-20T18:37:21.436Z,4.65
2019-03-20T18:40:11.988Z,4.80
2019-03-20T18:43:00.974Z,4.30
2019-03-20T18:45:52.406Z,4.00
2019-03-20T18:48:42.512Z,4.15
2019-03-20T18:51:31.543Z,4.12
2019-03-20T18:54:20.606Z,4.55
2019-03-20T18:57:09.505Z,5.05
2019-03-20T18:59:58.484Z,4.80
2019-03-20T19:02:47.097Z,4.90
2019-03-20T19:05:52.489Z,5.60
2019-03-20T19:08:41.769Z,5.53
2019-03-20T19:11:30.867Z,6.10
2019-03-20T19:14:20.387Z,6.40
2019-03-20T19:17:09.279Z,6.83
2019-03-20T19:19:58.204Z,8.88
2019-03-20T19:22:47.024Z,9.50
2019-03-20T19:25:38.981Z,8.78
2019-03-20T19:28:27.527Z,10.85
2019-03-20T19:31:17.107Z,8.50
2019-03-20T19:34:05.493Z,7.15
2019-03-20T19:36:54.573Z,7.70
2019-03-20T19:39:44.077Z,5.80
2019-03-20T19:42:33.058Z,6.83
2019-03-20T19:45:21.594Z,5.60
2019-03-20T19:48:10.979Z,6.42
2019-03-20T19:50:59.786Z,6.50
2019-03-20T19:53:48.824Z,6.78
2019-03-20T19:56:37.807Z,6.90
2019-03-20T19:59:26.841Z,6.78
2019-03-20T20:02:15.082Z,7.00
2019-03-20T20:05:15.028Z,7.78
2019-03-20T20:07:54.758Z,7.70
2019-03-20T20:10:43.983Z,8.55
2019-03-20T20:13:32.301Z,8.80
2019-03-20T20:16:21.026Z,9.33
2019-03-20T20:19:10.165Z,7.83
2019-03-20T20:21:58.613Z,8.83
2019-03-20T20:24:47.589Z,6.83
2019-03-20T20:27:36.372Z,7.37
2019-03-20T20:30:25.426Z,7.20
2019-03-20T20:33:14.595Z,8.30
2019-03-20T20:36:03.242Z,7.83
2019-03-20T20:38:51.845Z,9.53
2019-03-20T20:41:40.603Z,9.08
2019-03-20T20:44:29.771Z,9.90
2019-03-20T20:47:18.631Z,13.20
2019-03-20T20:50:07.817Z,15.40
2019-03-20T20:52:56.792Z,12.15
2019-03-20T20:55:46.187Z,13.05
2019-03-20T20:58:34.868Z,12.43
2019-03-20T21:01:23.272Z,12.20
2019-03-20T21:04:12.148Z,11.88
2019-03-20T21:07:00.900Z,13.25
2019-03-20T21:09:50.188Z,13.80
2019-03-20T21:12:39.566Z,13.65
2019-03-20T21:15:42.452Z,11.38
2019-03-20T21:19:15.853Z,12.45
2019-03-20T21:22:43.254Z,10.80
2019-03-20T21:25:32.191Z,11.73
2019-03-20T21:29:05.938Z,10.75
2019-03-20T21:32:00.521Z,10.13
2019-03-20T21:35:39.120Z,9.28
2019-03-20T21:38:25.765Z,9.30
2019-03-20T21:42:11.137Z,9.93
2019-03-20T21:45:31.644Z,8.90
2019-03-20T21:48:20.917Z,9.05
2019-03-20T21:51:17.943Z,8.18
2019-03-20T21:54:44.482Z,9.28
2019-03-20T21:58:04.585Z,8.23
2019-03-20T22:01:32.087Z,8.27
2019-03-20T22:04:20.820Z,7.53
2019-03-20T22:07:10.896Z,9.13
2019-03-20T22:10:41.156Z,8.35
2019-03-20T22:13:37.052Z,9.00
2019-03-20T22:17:11.735Z,9.17
2019-03-20T22:20:13.390Z,10.58
2019-03-20T22:23:30.753Z,13.32
2019-03-20T22:26:55.260Z,13.28
2019-03-20T22:29:44.599Z,14.03
2019-03-20T22:33:23.719Z,16.10
2019-03-20T22:36:26.929Z,17.62
2019-03-20T22:39:54.499Z,13.22
2019-03-20T22:42:51.759Z,10.15
2019-03-20T22:46:17.449Z,9.70
2019-03-20T22:49:56.223Z,10.60
2019-03-20T22:53:12.082Z,9.80
2019-03-20T22:56:18.760Z,9.48
2019-03-20T22:59:08.168Z,10.30
2019-03-20T23:02:27.544Z,9.50
2019-03-20T23:05:16.445Z,9.80
2019-03-20T23:08:12.449Z,10.50
2019-03-20T23:11:01.416Z,9.30
2019-03-20T23:13:50.517Z,8.85
2019-03-20T23:16:39.524Z,9.10
2019-03-20T23:19:29.024Z,9.58
2019-03-20T23:22:18.089Z,8.55
2019-03-20T23:25:07.691Z,10.08
2019-03-20T23:27:56.935Z,15.10
2019-03-20T23:30:45.950Z,18.70
2019-03-20T23:33:34.976Z,31.15
2019-03-20T23:36:24.527Z,24.40
2019-03-20T23:39:13.588Z,31.30
2019-03-20T23:42:02.760Z,27.65
2019-03-20T23:44:51.779Z,24.87
2019-03-20T23:48:00.258Z,13.57
2019-03-20T23:50:51.763Z,13.90
2019-03-20T23:53:45.173Z,9.60
2019-03-20T23:56:35.288Z,7.80
2019-03-20T23:59:23.990Z,7.25
